createdAt,value
2022-10-05T00:00:00.199Z,9.90
2022-10-05T00:02:27.300Z,9.80
2022-10-05T00:04:57.039Z,9.80
2022-10-05T00:07:25.111Z,9.80
2022-10-05T00:09:57.644Z,9.90
2022-10-05T00:12:26.108Z,9.80
2022-10-05T00:15:00.112Z,9.80
2022-10-05T00:17:29.466Z,9.80
2022-10-05T00:19:56.693Z,9.80
2022-10-05T00:22:29.940Z,9.80
2022-10-05T00:25:00.035Z,9.80
2022-10-05T00:27:32.758Z,9.80
2022-10-05T00:30:07.866Z,9.90
2022-10-05T00:32:34.880Z,9.80
2022-10-05T00:35:01.721Z,9.80
2022-10-05T00:37:28.614Z,9.80
2022-10-05T00:39:56.002Z,9.80
2022-10-05T00:42:56.878Z,9.70
2022-10-05T00:45:47.625Z,9.80
2022-10-05T00:48:17.801Z,9.70
2022-10-05T00:50:44.791Z,9.70
2022-10-05T00:53:34.893Z,9.70
2022-10-05T00:56:18.065Z,9.80
2022-10-05T00:59:09.797Z,9.80
2022-10-05T01:01:45.858Z,9.80
2022-10-05T01:04:18.516Z,9.80
2022-10-05T01:07:03.705Z,9.80
2022-10-05T01:09:31.427Z,9.90
2022-10-05T01:12:08.327Z,9.80
2022-10-05T01:14:43.473Z,9.90
2022-10-05T01:17:20.380Z,9.90
2022-10-05T01:20:12.967Z,9.90
2022-10-05T01:23:06.051Z,9.90
2022-10-05T01:25:35.676Z,9.90
2022-10-05T01:28:08.475Z,9.90
2022-10-05T01:30:42.844Z,9.90
2022-10-05T01:33:22.203Z,9.90
2022-10-05T01:36:00.238Z,9.90
2022-10-05T01:38:54.687Z,9.90
2022-10-05T01:41:29.320Z,9.80
2022-10-05T01:44:09.360Z,9.80
2022-10-05T01:47:03.737Z,9.80
2022-10-05T01:49:36.790Z,9.80
2022-10-05T01:52:22.524Z,9.80
2022-10-05T01:55:08.699Z,9.80
2022-10-05T01:57:51.316Z,9.70
2022-10-05T02:00:19.677Z,9.70
2022-10-05T02:02:48.900Z,9.70
2022-10-05T02:05:23.429Z,9.80
2022-10-05T02:08:08.273Z,9.80
2022-10-05T02:10:49.410Z,9.80
2022-10-05T02:13:22.989Z,9.80
2022-10-05T02:16:03.235Z,9.70
2022-10-05T02:18:40.729Z,9.80
2022-10-05T02:21:08.750Z,9.80
2022-10-05T02:23:39.143Z,9.70
2022-10-05T02:26:09.626Z,9.70
2022-10-05T02:28:44.049Z,9.70
2022-10-05T02:31:17.603Z,9.70
2022-10-05T02:33:44.595Z,9.70
2022-10-05T02:36:19.771Z,7.30
2022-10-05T02:39:19.178Z,9.60
2022-10-05T02:41:56.071Z,9.60
2022-10-05T02:44:28.273Z,9.50
2022-10-05T02:47:00.091Z,9.50
2022-10-05T02:49:39.609Z,9.50
2022-10-05T02:52:19.083Z,9.50
2022-10-05T02:55:16.517Z,9.40
2022-10-05T02:58:15.038Z,9.40
2022-10-05T03:00:55.559Z,9.30
2022-10-05T03:03:31.899Z,9.30
2022-10-05T03:06:02.548Z,9.30
2022-10-05T03:08:35.486Z,9.30
2022-10-05T03:11:23.696Z,7.80
2022-10-05T03:14:01.696Z,9.30
2022-10-05T03:16:58.966Z,9.30
2022-10-05T03:20:01.860Z,9.30
2022-10-05T03:23:00.894Z,9.30
2022-10-05T03:25:36.906Z,9.30
2022-10-05T03:28:07.068Z,9.40
2022-10-05T03:30:54.304Z,9.40
2022-10-05T03:33:45.716Z,9.40
2022-10-05T03:36:15.648Z,9.40
2022-10-05T03:39:50.297Z,9.30
2022-10-05T03:42:26.411Z,9.40
2022-10-05T03:45:09.439Z,9.30
2022-10-05T03:47:45.806Z,9.30
2022-10-05T03:50:44.588Z,9.30
2022-10-05T03:53:22.074Z,9.30
2022-10-05T03:56:13.313Z,9.30
2022-10-05T03:59:09.380Z,9.20
2022-10-05T04:01:47.021Z,9.30
2022-10-05T04:04:22.960Z,9.30
2022-10-05T04:06:52.383Z,9.20
2022-10-05T04:09:36.939Z,9.20
2022-10-05T04:12:19.391Z,9.20
2022-10-05T04:14:49.940Z,9.20
2022-10-05T04:17:18.678Z,9.10
2022-10-05T04:19:54.692Z,9.10
2022-10-05T04:22:37.215Z,9.10
2022-10-05T04:25:18.311Z,9.10
2022-10-05T04:28:00.594Z,9.10
2022-10-05T04:30:29.164Z,9.10
2022-10-05T04:32:58.142Z,9.00
2022-10-05T04:35:51.206Z,9.10
2022-10-05T04:38:48.822Z,9.00
2022-10-05T04:41:33.963Z,9.00
2022-10-05T04:44:18.515Z,9.10
2022-10-05T04:47:15.467Z,9.10
2022-10-05T04:50:04.977Z,9.10
2022-10-05T04:52:44.102Z,9.10
2022-10-05T04:55:10.975Z,9.10
2022-10-05T04:57:45.612Z,9.20
2022-10-05T05:00:22.976Z,9.20
2022-10-05T05:03:01.873Z,9.20
2022-10-05T05:06:15.345Z,9.20
2022-10-05T05:08:49.129Z,9.20
2022-10-05T05:11:26.068Z,9.20
2022-10-05T05:14:02.245Z,9.20
2022-10-05T05:16:41.329Z,9.20
2022-10-05T05:19:14.118Z,9.20
2022-10-05T05:22:13.547Z,9.20
2022-10-05T05:25:04.456Z,9.30
2022-10-05T05:27:50.429Z,9.20
2022-10-05T05:30:23.246Z,9.30
2022-10-05T05:33:17.617Z,9.30
2022-10-05T05:36:00.962Z,9.20
2022-10-05T05:38:46.358Z,9.20
2022-10-05T05:41:25.452Z,9.20
2022-10-05T05:44:03.903Z,9.20
2022-10-05T05:47:01.645Z,9.20
2022-10-05T05:49:45.228Z,9.20
2022-10-05T05:52:34.632Z,9.20
2022-10-05T05:55:29.936Z,9.20
2022-10-05T05:58:12.040Z,9.20
2022-10-05T06:00:59.668Z,9.20
2022-10-05T06:03:37.217Z,9.30
2022-10-05T06:06:11.862Z,9.30
2022-10-05T06:08:46.509Z,9.40
2022-10-05T06:11:27.063Z,9.50
2022-10-05T06:13:59.495Z,9.50
2022-10-05T06:16:42.890Z,9.50
2022-10-05T06:19:13.945Z,9.60
2022-10-05T06:21:58.912Z,9.70
2022-10-05T06:24:31.894Z,9.70
2022-10-05T06:27:34.175Z,9.80
2022-10-05T06:30:09.584Z,9.90
2022-10-05T06:33:07.556Z,10.00
2022-10-05T06:36:13.456Z,10.20
2022-10-05T06:39:04.990Z,10.40
2022-10-05T06:41:56.226Z,10.80
2022-10-05T06:45:04.941Z,11.40
2022-10-05T06:47:37.647Z,12.00
2022-10-05T06:50:33.443Z,12.50
2022-10-05T06:53:12.941Z,13.20
2022-10-05T06:56:03.023Z,13.60
2022-10-05T06:59:02.191Z,14.20
2022-10-05T07:01:51.702Z,14.80
2022-10-05T07:04:34.584Z,15.40
2022-10-05T07:07:14.746Z,15.80
2022-10-05T07:09:46.556Z,16.20
2022-10-05T07:12:37.999Z,17.10
2022-10-05T07:15:32.009Z,17.10
2022-10-05T07:18:32.061Z,17.10
2022-10-05T07:21:20.094Z,17.40
2022-10-05T07:23:53.030Z,17.60
2022-10-05T07:26:57.694Z,17.80
2022-10-05T07:29:45.578Z,18.10
2022-10-05T07:32:12.741Z,18.40
2022-10-05T07:35:32.388Z,18.50
2022-10-05T07:38:05.710Z,18.60
2022-10-05T07:40:45.499Z,18.60
2022-10-05T07:43:40.160Z,18.90
2022-10-05T07:46:53.117Z,19.10
2022-10-05T07:49:36.489Z,19.40
2022-10-05T07:52:15.314Z,19.60
2022-10-05T07:54:57.163Z,20.00
2022-10-05T07:57:59.745Z,20.50
2022-10-05T08:00:57.041Z,21.00
2022-10-05T08:03:43.547Z,21.50
2022-10-05T08:06:27.104Z,21.70
2022-10-05T08:09:23.153Z,22.00
2022-10-05T08:12:13.510Z,22.20
2022-10-05T08:14:52.734Z,22.50
2022-10-05T08:17:34.837Z,22.60
2022-10-05T08:20:35.411Z,23.00
2022-10-05T08:23:19.958Z,23.30
2022-10-05T08:25:47.124Z,23.70
2022-10-05T08:28:31.673Z,23.90
2022-10-05T08:31:09.132Z,24.10
2022-10-05T08:33:58.968Z,24.20
2022-10-05T08:36:54.291Z,24.20
2022-10-05T08:39:24.234Z,23.60
2022-10-05T08:42:32.540Z,22.60
2022-10-05T08:45:30.169Z,21.70
2022-10-05T08:48:09.394Z,21.00
2022-10-05T08:51:01.731Z,20.40
2022-10-05T08:53:59.877Z,20.00
2022-10-05T08:56:33.791Z,19.70
2022-10-05T08:59:38.349Z,19.50
2022-10-05T09:02:08.102Z,19.30
2022-10-05T09:04:53.667Z,19.00
2022-10-05T09:07:29.453Z,18.80
2022-10-05T09:10:11.419Z,18.70
2022-10-05T09:13:15.622Z,18.60
2022-10-05T09:16:06.428Z,18.60
2022-10-05T09:19:07.679Z,18.60
2022-10-05T09:21:50.211Z,18.60
2022-10-05T09:24:34.592Z,18.50
2022-10-05T09:27:18.423Z,18.50
2022-10-05T09:30:06.598Z,18.60
2022-10-05T09:33:21.219Z,18.50
2022-10-05T09:35:58.094Z,18.50
2022-10-05T09:39:02.722Z,18.40
2022-10-05T09:41:35.446Z,18.50
2022-10-05T09:44:20.868Z,18.40
2022-10-05T09:47:12.912Z,18.50
2022-10-05T09:50:16.655Z,18.50
2022-10-05T09:53:11.750Z,18.60
2022-10-05T09:56:06.540Z,18.60
2022-10-05T09:58:46.173Z,18.60
2022-10-05T10:01:34.998Z,18.60
2022-10-05T10:04:17.602Z,18.70
2022-10-05T10:07:13.695Z,18.70
2022-10-05T10:09:52.632Z,18.80
2022-10-05T10:12:35.172Z,18.90
2022-10-05T10:15:24.258Z,19.00
2022-10-05T10:18:34.659Z,19.00
2022-10-05T10:21:22.314Z,19.20
2022-10-05T10:24:01.275Z,19.20
2022-10-05T10:26:47.720Z,19.40
2022-10-05T10:29:39.958Z,19.40
2022-10-05T10:32:19.861Z,19.50
2022-10-05T10:35:20.281Z,19.60
2022-10-05T10:37:58.723Z,19.60
2022-10-05T10:40:34.914Z,19.70
2022-10-05T10:43:31.333Z,19.80
2022-10-05T10:46:23.248Z,19.90
2022-10-05T10:49:22.050Z,19.90
2022-10-05T10:52:16.348Z,20.00
2022-10-05T10:55:20.833Z,20.00
2022-10-05T10:58:02.715Z,20.10
2022-10-05T11:01:10.640Z,20.10
2022-10-05T11:03:58.877Z,20.30
2022-10-05T11:06:31.571Z,20.30
2022-10-05T11:09:11.392Z,20.40
2022-10-05T11:12:07.382Z,20.50
2022-10-05T11:14:52.920Z,20.50
2022-10-05T11:17:35.191Z,20.60
2022-10-05T11:20:43.297Z,20.60
2022-10-05T11:23:29.225Z,20.70
2022-10-05T11:26:14.601Z,21.50
2022-10-05T11:29:11.888Z,21.20
2022-10-05T11:32:00.192Z,21.00
2022-10-05T11:34:58.229Z,21.00
2022-10-05T11:37:53.680Z,21.00
2022-10-05T11:41:02.195Z,21.00
2022-10-05T11:43:47.263Z,21.00
2022-10-05T11:46:24.669Z,21.10
2022-10-05T11:48:54.492Z,21.10
2022-10-05T11:51:30.518Z,21.10
2022-10-05T11:54:06.581Z,21.20
2022-10-05T11:56:42.499Z,21.20
2022-10-05T11:59:32.027Z,21.30
2022-10-05T12:02:23.685Z,21.30
2022-10-05T12:05:12.714Z,21.30
2022-10-05T12:08:18.255Z,21.40
2022-10-05T12:11:07.020Z,21.50
2022-10-05T12:13:52.181Z,21.50
2022-10-05T12:16:54.798Z,21.50
2022-10-05T12:19:44.373Z,21.60
2022-10-05T12:22:43.886Z,22.10
2022-10-05T12:25:31.743Z,21.80
2022-10-05T12:28:17.308Z,21.60
2022-10-05T12:31:02.667Z,21.60
2022-10-05T12:33:37.642Z,21.50
2022-10-05T12:36:17.748Z,21.60
2022-10-05T12:38:58.835Z,21.60
2022-10-05T12:41:36.992Z,21.60
2022-10-05T12:44:34.897Z,21.80
2022-10-05T12:47:07.758Z,21.80
2022-10-05T12:50:19.314Z,21.80
2022-10-05T12:53:11.276Z,21.90
2022-10-05T12:55:57.597Z,21.90
2022-10-05T12:58:52.790Z,21.90
2022-10-05T13:01:29.006Z,21.90
2022-10-05T13:03:58.993Z,21.90
2022-10-05T13:06:32.039Z,21.90
2022-10-05T13:09:08.601Z,22.00
2022-10-05T13:11:48.777Z,22.00
2022-10-05T13:14:44.313Z,22.00
2022-10-05T13:17:14.179Z,22.00
2022-10-05T13:19:47.117Z,22.10
2022-10-05T13:22:20.309Z,22.10
2022-10-05T13:24:47.210Z,22.20
2022-10-05T13:27:27.716Z,22.20
2022-10-05T13:30:15.952Z,22.20
2022-10-05T13:32:46.211Z,22.20
2022-10-05T13:35:25.924Z,22.20
2022-10-05T13:38:18.589Z,22.30
2022-10-05T13:41:00.641Z,22.20
2022-10-05T13:43:50.134Z,22.20
2022-10-05T13:46:46.485Z,22.20
2022-10-05T13:49:34.921Z,22.10
2022-10-05T13:52:23.465Z,22.10
2022-10-05T13:55:43.203Z,22.10
2022-10-05T13:58:26.332Z,22.10
2022-10-05T14:00:58.033Z,22.10
2022-10-05T14:03:34.963Z,22.20
2022-10-05T14:06:10.695Z,22.20
2022-10-05T14:08:51.237Z,22.20
2022-10-05T14:11:26.595Z,22.20
2022-10-05T14:14:14.433Z,22.20
2022-10-05T14:17:05.604Z,22.20
2022-10-05T14:19:42.043Z,22.10
2022-10-05T14:22:24.215Z,22.10
2022-10-05T14:25:13.951Z,22.10
2022-10-05T14:27:59.129Z,22.20
2022-10-05T14:30:28.739Z,22.20
2022-10-05T14:33:16.773Z,22.20
2022-10-05T14:35:50.098Z,22.30
2022-10-05T14:38:35.782Z,22.30
2022-10-05T14:41:17.711Z,22.30
2022-10-05T14:44:13.030Z,22.30
2022-10-05T14:46:51.896Z,22.30
2022-10-05T14:49:27.581Z,22.30
2022-10-05T14:51:56.562Z,22.30
2022-10-05T14:54:45.196Z,22.40
2022-10-05T14:57:15.355Z,22.30
2022-10-05T15:00:00.372Z,22.40
2022-10-05T15:02:47.969Z,22.40
2022-10-05T15:05:17.119Z,22.40
2022-10-05T15:07:48.792Z,22.50
2022-10-05T15:10:34.611Z,22.50
2022-10-05T15:13:29.342Z,22.60
2022-10-05T15:16:38.409Z,22.50
2022-10-05T15:19:40.909Z,22.60
2022-10-05T15:22:31.814Z,22.50
2022-10-05T15:25:23.079Z,22.60
2022-10-05T15:28:11.371Z,22.60
2022-10-05T15:30:43.012Z,22.60
2022-10-05T15:33:38.070Z,22.50
2022-10-05T15:36:24.775Z,22.60
2022-10-05T15:39:03.739Z,22.50
2022-10-05T15:41:36.698Z,22.50
2022-10-05T15:44:36.391Z,22.40
2022-10-05T15:47:14.334Z,22.40
2022-10-05T15:50:14.038Z,22.30
2022-10-05T15:52:59.113Z,22.30
2022-10-05T15:55:35.305Z,22.20
2022-10-05T15:58:21.013Z,22.20
2022-10-05T16:00:54.729Z,22.10
2022-10-05T16:03:54.412Z,22.00
2022-10-05T16:07:03.008Z,21.90
2022-10-05T16:10:03.377Z,21.80
2022-10-05T16:12:54.011Z,21.70
2022-10-05T16:15:48.599Z,21.70
2022-10-05T16:18:37.232Z,21.60
2022-10-05T16:21:14.335Z,21.50
2022-10-05T16:24:09.258Z,21.40
2022-10-05T16:27:04.086Z,21.30
2022-10-05T16:29:46.639Z,21.30
2022-10-05T16:32:22.168Z,21.20
2022-10-05T16:34:54.193Z,21.10
2022-10-05T16:38:26.168Z,21.10
2022-10-05T16:41:09.646Z,21.10
2022-10-05T16:44:07.689Z,21.00
2022-10-05T16:46:52.589Z,20.80
2022-10-05T16:49:22.425Z,20.80
2022-10-05T16:51:59.390Z,20.60
2022-10-05T16:54:38.434Z,20.60
2022-10-05T16:57:17.772Z,20.50
2022-10-05T17:00:08.904Z,20.30
2022-10-05T17:02:56.898Z,20.20
2022-10-05T17:05:59.464Z,20.10
2022-10-05T17:09:13.343Z,19.90
2022-10-05T17:11:55.337Z,19.90
2022-10-05T17:14:28.048Z,19.80
2022-10-05T17:17:23.077Z,19.70
2022-10-05T17:20:17.491Z,19.60
2022-10-05T17:23:04.510Z,19.50
2022-10-05T17:25:55.692Z,19.40
2022-10-05T17:28:44.825Z,19.20
2022-10-05T17:31:22.494Z,19.10
2022-10-05T17:34:17.831Z,19.00
2022-10-05T17:36:48.656Z,18.90
2022-10-05T17:39:27.040Z,18.80
2022-10-05T17:42:17.467Z,18.70
2022-10-05T17:44:44.357Z,18.50
2022-10-05T17:47:13.990Z,18.50
2022-10-05T17:50:17.362Z,18.40
2022-10-05T17:53:03.563Z,18.40
2022-10-05T17:55:34.011Z,18.30
2022-10-05T17:58:24.240Z,18.20
2022-10-05T18:00:57.582Z,18.10
2022-10-05T18:03:43.952Z,18.00
2022-10-05T18:06:26.456Z,17.90
2022-10-05T18:09:20.330Z,17.80
2022-10-05T18:12:24.938Z,17.70
2022-10-05T18:15:02.061Z,17.60
2022-10-05T18:17:45.201Z,17.50
2022-10-05T18:20:14.807Z,17.40
2022-10-05T18:22:46.710Z,17.40
2022-10-05T18:25:27.232Z,17.30
2022-10-05T18:28:00.921Z,17.20
2022-10-05T18:30:31.854Z,17.10
2022-10-05T18:33:02.893Z,17.10
2022-10-05T18:35:47.567Z,17.00
2022-10-05T18:38:49.040Z,16.90
2022-10-05T18:41:26.805Z,16.90
2022-10-05T18:43:59.691Z,16.80
2022-10-05T18:46:42.094Z,16.70
2022-10-05T18:49:49.440Z,16.70
2022-10-05T18:52:22.681Z,16.60
2022-10-05T18:55:17.136Z,16.50
2022-10-05T18:58:05.632Z,16.40
2022-10-05T19:00:54.616Z,16.30
2022-10-05T19:03:46.421Z,16.30
2022-10-05T19:06:29.904Z,16.20
2022-10-05T19:09:08.717Z,16.10
2022-10-05T19:11:57.653Z,16.10
2022-10-05T19:14:33.693Z,16.10
2022-10-05T19:17:25.784Z,16.00
2022-10-05T19:20:12.665Z,16.10
2022-10-05T19:23:09.419Z,15.90
2022-10-05T19:25:43.414Z,15.90
2022-10-05T19:28:37.139Z,15.80
2022-10-05T19:31:13.361Z,15.80
2022-10-05T19:33:55.763Z,15.80
2022-10-05T19:36:45.146Z,15.70
2022-10-05T19:39:28.680Z,15.70
2022-10-05T19:42:22.824Z,15.70
2022-10-05T19:45:14.408Z,15.60
2022-10-05T19:47:47.336Z,15.60
2022-10-05T19:50:23.692Z,15.40
2022-10-05T19:52:57.180Z,15.40
2022-10-05T19:55:34.794Z,15.30
2022-10-05T19:58:16.092Z,15.30
2022-10-05T20:00:45.810Z,15.30
2022-10-05T20:03:27.262Z,15.30
2022-10-05T20:05:59.363Z,15.30
2022-10-05T20:08:32.001Z,15.30
2022-10-05T20:11:11.330Z,15.30
2022-10-05T20:14:02.541Z,15.30
2022-10-05T20:16:50.001Z,15.30
2022-10-05T20:19:47.552Z,15.20
2022-10-05T20:22:30.231Z,15.20
2022-10-05T20:25:01.167Z,15.20
2022-10-05T20:27:40.970Z,15.10
2022-10-05T20:30:09.686Z,15.20
2022-10-05T20:32:36.614Z,15.10
2022-10-05T20:35:03.591Z,15.00
2022-10-05T20:37:30.548Z,15.00
2022-10-05T20:39:57.428Z,15.00
2022-10-05T20:42:25.470Z,14.90
2022-10-05T20:44:56.715Z,14.90
2022-10-05T20:47:25.232Z,14.90
2022-10-05T20:49:54.532Z,14.90
2022-10-05T20:52:23.163Z,14.80
2022-10-05T20:54:56.593Z,14.80
2022-10-05T20:57:24.303Z,14.80
2022-10-05T20:59:51.580Z,14.70
2022-10-05T21:02:19.614Z,14.70
2022-10-05T21:04:47.688Z,14.60
2022-10-05T21:07:20.999Z,14.60
2022-10-05T21:09:47.953Z,14.50
2022-10-05T21:12:16.457Z,14.50
2022-10-05T21:14:43.627Z,14.50
2022-10-05T21:17:12.037Z,14.50
2022-10-05T21:19:40.376Z,14.60
2022-10-05T21:22:09.125Z,14.60
2022-10-05T21:24:37.819Z,14.70
2022-10-05T21:27:05.495Z,14.70
2022-10-05T21:29:34.235Z,14.80
2022-10-05T21:32:01.550Z,14.80
2022-10-05T21:34:28.749Z,14.80
2022-10-05T21:36:55.840Z,14.80
2022-10-05T21:39:23.610Z,14.80
2022-10-05T21:41:50.577Z,14.80
2022-10-05T21:44:18.203Z,14.80
2022-10-05T21:46:45.256Z,14.80
2022-10-05T21:49:14.169Z,14.80
2022-10-05T21:51:44.913Z,14.70
2022-10-05T21:54:15.303Z,14.70
2022-10-05T21:56:46.303Z,14.70
2022-10-05T21:59:16.988Z,14.60
2022-10-05T22:01:43.916Z,14.40
2022-10-05T22:04:10.790Z,14.30
2022-10-05T22:06:37.759Z,14.20
2022-10-05T22:09:05.315Z,14.10
2022-10-05T22:11:32.875Z,14.00
2022-10-05T22:14:02.824Z,13.90
2022-10-05T22:16:33.289Z,13.80
2022-10-05T22:19:04.513Z,13.70
2022-10-05T22:21:34.307Z,13.60
2022-10-05T22:24:02.762Z,13.60
2022-10-05T22:26:31.102Z,13.50
2022-10-05T22:28:58.626Z,13.40
2022-10-05T22:31:25.677Z,13.30
2022-10-05T22:33:52.691Z,13.20
2022-10-05T22:36:20.467Z,13.20
2022-10-05T22:38:47.693Z,13.20
2022-10-05T22:41:18.225Z,13.20
2022-10-05T22:43:48.670Z,13.10
2022-10-05T22:46:16.209Z,13.00
2022-10-05T22:48:43.288Z,12.90
2022-10-05T22:51:10.435Z,12.90
2022-10-05T22:53:37.860Z,12.80
2022-10-05T22:56:09.936Z,12.80
2022-10-05T22:58:37.378Z,12.80
2022-10-05T23:01:06.963Z,12.80
2022-10-05T23:03:34.810Z,12.80
2022-10-05T23:06:07.124Z,12.80
2022-10-05T23:08:36.215Z,12.70
2022-10-05T23:11:04.357Z,12.70
2022-10-05T23:13:33.328Z,12.70
2022-10-05T23:16:12.383Z,12.60
2022-10-05T23:18:43.515Z,12.60
2022-10-05T23:21:11.583Z,12.50
2022-10-05T23:23:43.822Z,12.60
2022-10-05T23:26:11.678Z,12.40
2022-10-05T23:28:49.110Z,12.30
2022-10-05T23:31:19.552Z,12.30
2022-10-05T23:33:46.737Z,12.30
2022-10-05T23:36:19.808Z,12.20
2022-10-05T23:38:47.023Z,12.20
2022-10-05T23:41:14.593Z,12.30
2022-10-05T23:43:41.694Z,12.30
2022-10-05T23:46:09.698Z,12.30
2022-10-05T23:48:39.451Z,12.30
2022-10-05T23:51:08.700Z,12.20
2022-10-05T23:53:35.677Z,12.20
2022-10-05T23:56:03.085Z,12.20
2022-10-05T23:58:30.350Z,12.10
